Time;durP1;ratioP1;P1;durP2;ratioP2;P2;SDS_P1;SDS_P2;PMS_P1;PMS_P2;Temp;Humidity;BMP_temperature;BMP_pressure;BME280_temperature;BME280_humidity;BME280_pressure;Samples;Min_cycle;Max_cycle;Signal;HPM_P1;HPM_P2
2022/03/21 00:09:16;;;;;;;5.87;3.97;;;;;;;-1.57;53.58;102916.84;18366535;32;20142;-64
2022/03/21 00:19:20;;;;;;;8.23;5.13;;;;;;;-1.37;52.45;102915.13;18365958;32;20097;-64
2022/03/21 00:29:24;;;;;;;1.63;1.60;;;;;;;-1.37;52.49;102914.25;18366187;32;20191;-64
2022/03/21 00:39:28;;;;;;;5.00;3.27;;;;;;;-1.76;52.70;102915.97;18365620;32;20085;-64
2022/03/21 00:49:31;;;;;;;7.23;3.27;;;;;;;-1.86;53.61;102917.72;18365959;32;20163;-64
2022/03/21 00:59:36;;;;;;;3.87;3.53;;;;;;;-1.68;53.74;102909.88;18364385;32;20136;-64
2022/03/21 01:09:39;;;;;;;3.03;2.70;;;;;;;-2.02;53.73;102900.09;18368980;32;20382;-64
2022/03/21 01:19:44;;;;;;;5.43;3.70;;;;;;;-1.96;52.98;102904.87;18372673;32;20107;-64
2022/03/21 01:29:47;;;;;;;3.93;2.00;;;;;;;-2.19;54.79;102893.44;18371270;32;20476;-63
2022/03/21 01:39:52;;;;;;;2.83;2.47;;;;;;;-2.37;54.95;102903.84;18370546;32;20085;-64
2022/03/21 01:49:55;;;;;;;1.43;1.40;;;;;;;-2.42;55.28;102889.72;18370739;32;20428;-64
2022/03/21 02:00:00;;;;;;;8.53;3.80;;;;;;;-2.38;54.50;102881.53;18370646;32;20088;-64
2022/03/21 02:10:06;;;;;;;6.10;3.37;;;;;;;-2.68;55.74;102885.66;18371149;32;20085;-64
2022/03/21 02:20:12;;;;;;;4.47;2.43;;;;;;;-2.76;56.24;102888.28;18369245;32;20097;-64
2022/03/21 02:30:16;;;;;;;3.77;3.20;;;;;;;-2.74;57.31;102885.13;18369819;32;20155;-63
2022/03/21 02:40:20;;;;;;;3.13;2.93;;;;;;;-2.72;55.61;102890.34;18370450;32;20119;-64
2022/03/21 02:50:32;;;;;;;4.97;4.33;;;;;;;-2.85;55.46;102884.13;18368955;32;20438;-63
2022/03/21 03:00:35;;;;;;;1.87;1.63;;;;;;;-2.90;56.46;102882.78;18368780;32;20712;-63
2022/03/21 03:10:40;;;;;;;1.33;1.30;;;;;;;-2.70;56.00;102881.19;18368416;32;20150;-64
2022/03/21 03:20:48;;;;;;;3.00;2.77;;;;;;;-2.95;56.30;102872.12;18367766;32;20650;-64
2022/03/21 03:30:53;;;;;;;3.40;2.20;;;;;;;-2.95;57.01;102881.47;18366537;32;20101;-63
2022/03/21 03:40:57;;;;;;;4.27;2.90;;;;;;;-2.99;57.15;102882.84;18368895;32;20117;-64
2022/03/21 03:51:03;;;;;;;4.27;2.47;;;;;;;-3.37;57.40;102881.06;18368521;32;20092;-64
2022/03/21 04:01:07;;;;;;;3.00;2.80;;;;;;;-3.40;58.97;102882.41;18367449;32;20165;-63
2022/03/21 04:11:12;;;;;;;4.43;2.97;;;;;;;-3.28;57.34;102893.78;18367826;32;20120;-63
2022/03/21 04:21:15;;;;;;;4.30;3.90;;;;;;;-3.56;58.19;102893.72;18366543;32;20085;-63
2022/03/21 04:31:19;;;;;;;5.43;4.27;;;;;;;-3.17;57.25;102888.78;18365928;32;20118;-64
2022/03/21 04:41:23;;;;;;;2.27;1.87;;;;;;;-3.35;57.43;102897.41;18364906;32;20486;-64
2022/03/21 04:51:28;;;;;;;1.40;1.37;;;;;;;-3.41;57.34;102906.16;18364930;32;20519;-63
2022/03/21 05:01:31;;;;;;;1.73;1.63;;;;;;;-3.46;57.85;102899.69;18363827;32;20483;-63
2022/03/21 05:11:36;;;;;;;3.87;3.07;;;;;;;-3.35;58.68;102904.16;18403757;32;20123;-63
2022/03/21 05:21:40;;;;;;;3.90;2.27;;;;;;;-3.27;57.43;102918.56;18426555;32;20092;-63
2022/03/21 05:31:46;;;;;;;1.73;1.63;;;;;;;-2.83;58.04;102918.37;18426633;32;20089;-64
2022/03/21 05:41:51;;;;;;;2.73;2.33;;;;;;;-1.82;55.33;102912.09;18417095;32;20101;-63
2022/03/21 05:51:55;;;;;;;4.13;3.33;;;;;;;-0.71;52.32;102908.75;18426734;32;20739;-64
2022/03/21 06:01:58;;;;;;;5.35;3.85;;;;;;;1.97;47.82;102909.91;18431290;32;20085;-64
2022/03/21 06:12:04;;;;;;;12.27;5.60;;;;;;;4.13;42.17;102906.59;18435224;32;20116;-64
2022/03/21 06:22:08;;;;;;;9.65;4.22;;;;;;;6.70;37.01;102918.22;18394498;32;20101;-65
2022/03/21 06:32:13;;;;;;;10.23;4.20;;;;;;;9.50;32.82;102906.50;18372498;32;20091;-65
2022/03/21 06:42:21;;;;;;;11.48;5.25;;;;;;;11.84;28.38;102904.75;18369938;32;20120;-65
2022/03/21 06:52:25;;;;;;;13.68;5.87;;;;;;;14.57;23.92;102909.50;18369410;32;20367;-65
2022/03/21 07:02:29;;;;;;;11.25;5.35;;;;;;;16.91;20.25;102902.78;18383600;32;20133;-66
2022/03/21 07:12:35;;;;;;;10.60;4.85;;;;;;;15.34;20.60;102909.25;18374867;32;20101;-66
2022/03/21 07:22:38;;;;;;;11.02;4.70;;;;;;;14.46;22.67;102921.53;18371699;32;20151;-65
2022/03/21 07:32:44;;;;;;;10.68;4.60;;;;;;;12.43;25.24;102930.22;18365016;32;20110;-65
2022/03/21 07:42:49;;;;;;;7.03;3.83;;;;;;;12.57;23.62;102936.75;18366545;32;20085;-65
2022/03/21 07:52:55;;;;;;;6.68;2.78;;;;;;;12.84;24.09;102932.28;18365932;32;20105;-65
2022/03/21 08:02:59;;;;;;;7.70;3.08;;;;;;;14.89;20.97;102923.31;18367211;32;20100;-66
2022/03/21 08:13:04;;;;;;;10.15;3.97;;;;;;;13.30;22.70;102925.69;18366807;32;20094;-65
2022/03/21 08:23:08;;;;;;;6.12;3.65;;;;;;;13.61;18.65;102928.28;18379767;32;20148;-65
2022/03/21 08:33:13;;;;;;;7.78;3.55;;;;;;;13.13;19.36;102927.87;18410744;32;20389;-65
2022/03/21 08:43:16;;;;;;;9.40;3.30;;;;;;;13.00;19.61;102917.91;18407387;32;20097;-65
2022/03/21 08:53:21;;;;;;;7.00;2.83;;;;;;;12.68;21.03;102915.22;18366298;32;20370;-65
2022/03/21 09:03:24;;;;;;;5.75;2.75;;;;;;;12.76;20.41;102908.47;18365704;32;20101;-65
2022/03/21 09:13:29;;;;;;;4.72;2.65;;;;;;;12.41;20.14;102895.19;18384411;32;20216;-66
2022/03/21 09:23:33;;;;;;;7.35;2.87;;;;;;;12.72;20.32;102880.41;18393489;32;20111;-65
2022/03/21 09:33:39;;;;;;;6.43;3.30;;;;;;;13.45;19.69;102870.13;18372018;32;20101;-65
2022/03/21 09:43:43;;;;;;;9.75;3.35;;;;;;;16.90;16.39;102848.25;18393748;32;20088;-66
2022/03/21 09:53:48;;;;;;;9.27;3.62;;;;;;;18.94;14.09;102839.84;18436108;32;20111;-66
2022/03/21 10:03:51;;;;;;;8.52;3.67;;;;;;;23.18;11.21;102829.75;18435340;32;20097;-66
2022/03/21 10:13:55;;;;;;;9.52;3.92;;;;;;;22.42;11.09;102821.09;18430215;32;20116;-66
2022/03/21 10:24:02;;;;;;;7.93;3.10;;;;;;;17.28;14.19;102824.03;18434698;32;20238;-67
2022/03/21 10:34:09;;;;;;;9.15;3.62;;;;;;;16.09;15.47;102815.66;18434341;32;20085;-66
2022/03/21 10:44:12;;;;;;;7.55;3.33;;;;;;;19.61;13.37;102786.00;18426837;32;20084;-66
2022/03/21 10:54:41;;;;;;;11.07;3.47;;;;;;;21.39;11.14;102764.66;18415323;32;20465;-66
2022/03/21 11:04:45;;;;;;;7.70;3.15;;;;;;;20.81;11.93;102746.56;18398429;32;20101;-67
2022/03/21 11:14:50;;;;;;;7.53;4.07;;;;;;;18.17;13.09;102748.84;18433343;32;20093;-66
2022/03/21 11:24:53;;;;;;;6.30;2.83;;;;;;;16.45;14.64;102748.47;18433236;32;20100;-66
2022/03/21 11:35:05;;;;;;;5.93;2.40;;;;;;;14.70;16.45;102745.03;18433068;32;20148;-66
2022/03/21 11:45:21;;;;;;;;;;;;;;;14.55;16.52;102728.97;18432669;32;20109;-65
2022/03/21 11:55:30;;;;;;;5.25;2.35;;;;;;;14.94;16.99;102713.91;18431673;32;19992;-66
2022/03/21 12:05:50;;;;;;;4.85;2.20;;;;;;;14.65;16.22;102701.97;18431869;32;20105;-67
2022/03/21 12:15:55;;;;;;;6.18;1.95;;;;;;;13.95;17.16;102684.94;18432845;32;20084;-66
2022/03/21 12:25:58;;;;;;;4.55;1.90;;;;;;;14.75;16.98;102687.28;18379122;32;20098;-66
2022/03/21 12:36:06;;;;;;;3.75;2.17;;;;;;;14.56;15.99;102644.03;18391705;32;20112;-66
2022/03/21 12:46:12;;;;;;;4.50;2.15;;;;;;;15.37;15.46;102643.53;18392851;32;20178;-66
2022/03/21 12:56:19;;;;;;;4.72;2.62;;;;;;;14.97;15.64;102629.78;18396029;32;20137;-67
2022/03/21 13:16:49;;;;;;;3.33;2.00;;;;;;;14.61;14.76;102620.44;18394059;32;20089;-67
2022/03/21 13:26:57;;;;;;;7.20;2.50;;;;;;;14.70;14.44;102610.94;18385027;32;20107;-68
2022/03/21 13:37:02;;;;;;;5.20;2.37;;;;;;;15.14;15.92;102594.97;18384963;32;20183;-68
2022/03/21 13:47:07;;;;;;;6.05;2.10;;;;;;;14.78;14.63;102591.81;18384542;32;20147;-67
2022/03/21 13:57:12;;;;;;;5.68;2.33;;;;;;;15.42;13.83;102558.47;18382869;32;20097;-68
2022/03/21 14:07:16;;;;;;;4.22;2.03;;;;;;;14.28;14.84;102572.59;18383328;32;20107;-68
2022/03/21 14:17:21;;;;;;;4.72;2.10;;;;;;;15.42;14.50;102558.47;18438087;32;20575;-68
2022/03/21 14:27:24;;;;;;;2.37;1.70;;;;;;;15.21;13.96;102542.44;18434888;32;20150;-67
2022/03/21 14:37:29;;;;;;;4.45;1.90;;;;;;;15.40;13.71;102534.78;18434667;32;20374;-67
2022/03/21 14:47:32;;;;;;;3.40;1.98;;;;;;;15.79;13.45;102522.94;18434255;32;20101;-68
2022/03/21 14:57:37;;;;;;;4.60;1.83;;;;;;;16.38;13.61;102514.66;18434049;32;20460;-68
2022/03/21 15:07:40;;;;;;;7.22;3.08;;;;;;;15.19;13.68;102504.72;18434304;32;20174;-68
2022/03/21 15:17:45;;;;;;;2.95;1.85;;;;;;;14.71;14.67;102507.56;18418141;32;20409;-68
2022/03/21 15:27:49;;;;;;;4.45;1.87;;;;;;;14.74;14.59;102497.97;18372425;32;20097;-68
2022/03/21 15:48:14;;;;;;;;;;;;;;;14.72;14.65;102476.91;18369270;32;20081;-67
2022/03/21 15:58:19;;;;;;;6.75;2.78;;;;;;;15.03;14.33;102482.59;18368698;32;19976;-67
2022/03/21 16:08:22;;;;;;;7.22;2.65;;;;;;;15.29;14.29;102479.41;18367962;32;20101;-68
2022/03/21 16:18:28;;;;;;;3.37;1.85;;;;;;;14.93;14.82;102480.72;18367969;32;20089;-67
2022/03/21 16:28:31;;;;;;;4.80;2.62;;;;;;;14.63;15.48;102488.16;18367903;32;20099;-67
2022/03/21 16:38:36;;;;;;;5.60;1.95;;;;;;;14.50;15.78;102496.75;18366320;32;20163;-67
2022/03/21 16:48:39;;;;;;;4.95;2.40;;;;;;;14.14;16.63;102494.44;18366578;32;20366;-67
2022/03/21 16:58:45;;;;;;;7.15;2.28;;;;;;;13.60;18.47;102501.37;18366288;32;20127;-67
2022/03/21 17:08:53;;;;;;;4.45;2.25;;;;;;;12.62;19.58;102486.19;18427308;32;20088;-67
2022/03/21 17:29:21;;;;;;;10.00;4.72;;;;;;;11.12;22.01;102501.50;18227081;32;20153;-67
2022/03/21 17:39:31;;;;;;;11.57;5.20;;;;;;;10.36;24.32;102520.91;18226420;32;20192;-67
2022/03/21 17:49:35;;;;;;;6.53;3.78;;;;;;;9.98;25.29;102526.62;18229245;32;20139;-66
2022/03/21 17:59:41;;;;;;;5.22;3.45;;;;;;;9.12;26.94;102535.72;18265070;32;20433;-66
2022/03/21 18:09:44;;;;;;;4.65;2.47;;;;;;;8.31;28.77;102548.13;18371470;32;20111;-66
2022/03/21 18:19:50;;;;;;;7.12;3.05;;;;;;;7.90;29.54;102567.22;18372046;32;20175;-66
2022/03/21 18:29:53;;;;;;;11.93;3.10;;;;;;;7.07;30.62;102573.03;18370854;32;20343;-66
2022/03/21 18:39:58;;;;;;;14.13;4.78;;;;;;;6.86;30.06;102579.81;18371020;32;20111;-66
2022/03/21 18:50:06;;;;;;;8.43;4.40;;;;;;;6.46;31.39;102578.72;18378971;32;20104;-64
2022/03/21 19:00:14;;;;;;;4.22;2.53;;;;;;;5.97;32.69;102573.69;18376520;32;131749;-66
2022/03/21 19:10:19;;;;;;;8.48;3.62;;;;;;;5.43;34.25;102594.16;18369720;32;20097;-66
2022/03/21 19:20:26;;;;;;;6.32;3.28;;;;;;;5.08;34.50;102594.00;18369615;32;20116;-66
2022/03/21 19:30:30;;;;;;;7.57;2.95;;;;;;;5.14;34.43;102601.22;18369544;32;20131;-66
2022/03/21 19:40:36;;;;;;;3.12;1.95;;;;;;;4.39;36.27;102607.34;18397048;32;20097;-64
2022/03/21 19:50:39;;;;;;;7.25;3.08;;;;;;;4.26;35.52;102613.47;18396815;32;20096;-64
2022/03/21 20:00:45;;;;;;;3.58;2.25;;;;;;;4.05;35.88;102617.38;18414921;32;20113;-64
2022/03/21 20:10:49;;;;;;;5.93;5.05;;;;;;;3.82;36.62;102611.72;18391718;32;20089;-64
2022/03/21 20:20:53;;;;;;;5.82;4.00;;;;;;;3.18;38.89;102624.16;18391956;32;20147;-64
2022/03/21 20:30:57;;;;;;;9.10;5.53;;;;;;;3.17;39.53;102622.38;18406580;32;20393;-64
2022/03/21 20:41:02;;;;;;;5.07;4.37;;;;;;;2.88;40.67;102631.72;18391273;32;20111;-64
2022/03/21 20:51:06;;;;;;;7.05;3.70;;;;;;;2.80;41.43;102635.47;18392519;32;20108;-63
2022/03/21 21:01:11;;;;;;;4.30;2.78;;;;;;;2.71;41.33;102633.19;18392325;32;20112;-63
2022/03/21 21:11:15;;;;;;;4.43;2.83;;;;;;;2.56;41.07;102632.16;18390204;32;20477;-63
2022/03/21 21:21:19;;;;;;;6.18;3.33;;;;;;;2.56;41.28;102630.50;18402962;32;20130;-63
2022/03/21 21:31:24;;;;;;;3.87;2.67;;;;;;;2.05;42.33;102627.06;18434173;32;20100;-64
2022/03/21 21:41:29;;;;;;;8.05;3.35;;;;;;;2.32;42.08;102632.28;18436033;32;20402;-63
2022/03/21 21:51:33;;;;;;;17.33;5.63;;;;;;;1.76;43.34;102626.81;18434630;32;20089;-63
2022/03/21 22:01:37;;;;;;;8.95;5.00;;;;;;;1.92;42.36;102636.50;18434129;32;20100;-63
2022/03/21 22:11:41;;;;;;;4.43;3.03;;;;;;;1.87;44.55;102643.03;18433627;32;20158;-63
2022/03/21 22:21:45;;;;;;;9.65;3.72;;;;;;;1.75;45.81;102644.72;18433514;32;20111;-63
2022/03/21 22:31:48;;;;;;;7.85;4.32;;;;;;;1.59;45.55;102646.22;18432952;32;20111;-63
2022/03/21 22:52:16;;;;;;;5.55;3.40;;;;;;;1.57;45.36;102641.75;18433130;32;20136;-63
2022/03/21 23:02:21;;;;;;;4.68;3.45;;;;;;;1.70;45.72;102644.41;18432742;32;20097;-64
2022/03/21 23:12:24;;;;;;;10.23;5.37;;;;;;;1.41;47.14;102639.78;18432626;32;20114;-63
2022/03/21 23:22:29;;;;;;;8.85;4.32;;;;;;;1.44;46.64;102652.84;18431954;32;20442;-63
2022/03/21 23:32:33;;;;;;;12.60;6.85;;;;;;;1.45;47.51;102657.22;18431954;32;20143;-63
2022/03/21 23:42:37;;;;;;;9.55;4.32;;;;;;;1.35;47.74;102651.41;18431653;32;20150;-63
2022/03/21 23:52:41;;;;;;;6.60;4.22;;;;;;;1.24;48.87;102657.47;18432107;32;20365;-62
